• Join FlightAware (Why Join?)
  • Login
  • US Flag 
07:19AM EDT


 

Airport Tracker/Info


-or-


 

Live Flight TrackerFlight Track Log ✈ AWE3417 ✈ 07-Dec-2013 ✈ KPHL - KSAV

Flight Track Log - Related Links

Times and Time Zones

All times are in EST time to prevent confusion due to time zone crossing. See the AWE3417 flight status page for this flight to view local times or setup timezone preferences in your user account.

Time Position Orientation Groundspeed Altitude Reporting Facility
EST Latitude Longitude Course Direction KTS MPH feet Rate Location/Type
10:38AM 39.8667 -75.2833 191° South 157 181 1,000  Level Philadelphia TRACON
10:38AM 39.8500 -75.2833 180° South 165 190 1,600 2,100 Climbing Philadelphia TRACON
10:39AM 39.8000 -75.3333 218° Southwest 241 277 4,000 2,820 Climbing Philadelphia TRACON
10:41AM 39.5877 -75.4870 185° South  Level Estimated
10:42AM 39.5165 -75.5482 180° South  Level Estimated
10:42AM 39.6239 -75.3922 194° South 266 306 11,700  Level Washington Center
10:43AM 39.4453 -75.6093 191° South  Level Estimated
10:43AM 39.5364 -75.3897 179° South 291 335 14,400  Level Washington Center
10:44AM 39.4550 -75.3872 179° South 317 365 16,000 1,260 Climbing Washington Center
10:45AM 39.3569 -75.3850 179° South 343 395 17,000 1,020 Climbing Washington Center
10:46AM 39.2569 -75.3825 179° South 356 410 18,100 1,560 Climbing Washington Center
10:47AM 39.1550 -75.3936 185° South 362 417 20,200 2,100 Climbing Washington Center
10:48AM 39.0528 -75.4072 186° South 367 422 22,300 1,860 Climbing Washington Center
10:49AM 38.9506 -75.4236 187° South 367 422 24,000 1,500 Climbing Washington Center
10:50AM 38.8464 -75.4397 187° South 372 428 25,400 1,320 Climbing Washington Center
10:51AM 38.7381 -75.4533 186° South 377 434 26,700 1,380 Climbing Washington Center
10:52AM 38.6275 -75.4694 186° South 390 449 28,200 1,080 Climbing Washington Center
10:53AM 38.5192 -75.4856 187° South 395 455 28,900 840 Climbing Washington Center
10:54AM 38.4044 -75.5042 187° South 406 467 29,900 960 Climbing Washington Center
10:55AM 38.3025 -75.5442 197° South 406 467 30,900 900 Climbing Washington Center
10:56AM 38.2189 -75.6233 217° Southwest 378 435 31,800 540 Climbing Washington Center
10:57AM 38.1314 -75.6972 214° Southwest 378 435 32,000 60 Climbing Washington Center
10:58AM 38.0478 -75.7764 217° Southwest 383 441 32,000  Level Washington Center
10:59AM 37.9603 -75.8553 215° Southwest 383 441 32,000  Level Washington Center
11:00AM 37.8744 -75.9311 215° Southwest 388 447 32,000  Level Washington Center
11:01AM 37.7908 -76.0069 216° Southwest 388 447 32,000  Level Washington Center
11:02AM 37.6986 -76.0958 217° Southwest 388 447 32,000  Level Washington Center
11:03AM 37.6275 -76.1608 216° Southwest 388 447 32,000  Level Washington Center
11:04AM 37.5269 -76.2361 211° Southwest 388 447 32,000  Level Washington Center
11:05AM 37.4411 -76.3139 216° Southwest 388 447 32,000  Level Washington Center
11:06AM 37.3531 -76.3914 215° Southwest 388 447 32,000  Level Washington Center
11:07AM 37.2647 -76.4686 215° Southwest 388 447 32,000  Level Washington Center
11:08AM 37.1767 -76.5458 215° Southwest 388 447 32,000  Level Washington Center
11:09AM 37.0883 -76.6231 215° Southwest 388 447 32,000  Level Washington Center
11:10AM 36.9981 -76.7022 215° Southwest 388 447 32,000  Level Washington Center
11:11AM 36.9097 -76.7789 215° Southwest 393 452 32,000  Level Washington Center
11:12AM 36.8211 -76.8528 214° Southwest 393 452 32,000  Level Washington Center
11:13AM 36.7328 -76.9319 216° Southwest 393 452 32,000  Level Washington Center
11:14AM 36.6422 -77.0106 215° Southwest 393 452 32,000  Level Washington Center
11:15AM 36.5517 -77.0839 213° Southwest 393 452 32,000  Level Washington Center
11:16AM 36.4608 -77.1622 215° Southwest 400 460 32,000  Level Washington Center
11:17AM 36.3700 -77.2428 216° Southwest 405 466 32,000  Level Washington Center
11:18AM 36.2792 -77.3183 214° Southwest 405 466 32,000  Level Washington Center
11:19AM 36.1883 -77.3961 215° Southwest 405 466 32,000  Level Washington Center
11:20AM 36.0911 -77.4786 214° Southwest 405 466 32,000  Level Washington Center
11:21AM 35.9981 -77.5561 214° Southwest 405 466 32,000  Level Washington Center
11:22AM 35.9050 -77.6333 214° Southwest 405 466 32,000  Level Washington Center
11:23AM 35.8119 -77.7103 214° Southwest 405 466 32,000  Level Washington Center
11:24AM 35.7208 -77.7872 214° Southwest 405 466 32,000  Level Washington Center
11:25AM 35.6256 -77.8636 213° Southwest 405 466 32,000  Level Washington Center
11:26AM 35.5322 -77.9428 215° Southwest 405 466 32,000  Level Washington Center
11:27AM 35.4389 -78.0164 213° Southwest 405 466 32,000  Level Washington Center
11:28AM 35.3433 -78.0950 214° Southwest 405 466 32,000  Level Washington Center
11:29AM 35.2669 -78.1564 213° Southwest 405 466 32,000  Level Washington Center
11:30AM 35.1628 -78.2419 214° Southwest 405 466 32,000  Level Washington Center
11:31AM 35.0692 -78.3225 215° Southwest 405 466 32,000  Level Washington Center
11:32AM 34.9736 -78.3981 213° Southwest 405 466 32,000  Level Washington Center
11:33AM 34.8778 -78.4756 214° Southwest 410 472 32,000  Level Washington Center
11:37AM 34.5078 -78.7731 214° Southwest 410 472 32,000  Level Jacksonville Center
11:38AM 34.4225 -78.8503 217° Southwest 415 478 32,000  Level Jacksonville Center
11:39AM 34.3269 -78.9275 214° Southwest 421 484 32,000  Level Jacksonville Center
11:40AM 34.2317 -79.0122 216° Southwest 421 484 32,000  Level Jacksonville Center
11:41AM 34.1444 -79.1014 220° Southwest 426 490 32,000  Level Jacksonville Center
11:42AM 34.0597 -79.1953 223° Southwest 421 484 32,000 -120 Level Jacksonville Center
11:43AM 33.9728 -79.2867 221° Southwest 421 484 31,800 -600 Descending Jacksonville Center
11:44AM 33.8856 -79.3778 221° Southwest 421 484 30,800 -1,080 Descending Jacksonville Center
11:45AM 33.7944 -79.4764 222° Southwest 426 490 29,700 -1,080 Descending Jacksonville Center
11:46AM 33.7069 -79.5672 221° Southwest 426 490 28,700 -1,080 Descending Jacksonville Center
11:47AM 33.6219 -79.6600 222° Southwest 426 490 27,600 -1,200 Descending Jacksonville Center
11:48AM 33.5364 -79.7481 221° Southwest 426 490 26,400 -1,200 Descending Jacksonville Center
11:49AM 33.4531 -79.8381 222° Southwest 421 484 25,200 -1,200 Descending Jacksonville Center
11:50AM 33.3717 -79.9253 222° Southwest 415 478 24,000 -660 Descending Jacksonville Center
11:51AM 33.2900 -80.0100 221° Southwest 410 472 23,900 -600 Descending Jacksonville Center
11:52AM 33.2086 -80.0947 221° Southwest 410 472 22,800 -1,080 Descending Jacksonville Center
11:53AM 33.1308 -80.1714 220° Southwest 403 464 21,800 -1,140 Descending Jacksonville Center
11:54AM 33.0617 -80.2506 224° Southwest 355 409 20,600 -1,200 Descending Jacksonville Center
11:55AM 32.9839 -80.3294 220° Southwest 365 420 19,400 -1,320 Descending Jacksonville Center
11:56AM 32.9042 -80.4086 220° Southwest 371 427 18,000 -1,320 Descending Jacksonville Center
11:57AM 32.8306 -80.4847 221° Southwest 371 427 16,800 -1,380 Descending Jacksonville Center
11:58AM 32.7589 -80.5583 221° Southwest 366 421 15,300 -1,500 Descending Jacksonville Center
11:59AM 32.6892 -80.6317 222° Southwest 354 407 13,800 -1,560 Descending Jacksonville Center
12:00PM 32.6236 -80.6975 220° Southwest 336 387 12,200 -1,800 Descending Jacksonville Center
12:01PM 32.5661 -80.7581 222° Southwest 304 350 10,300 -2,040 Descending Jacksonville Center
12:02PM 32.5025 -80.8258 222° Southwest 273 314 8,200 -1,200 Descending Jacksonville Center
12:03PM 32.4364 -80.8667 208° Southwest 273 314 7,900 -480 Descending Jacksonville Center
12:04PM 32.3614 -80.8881 194° South 278 320 7,300 -1,200 Descending Jacksonville Center
12:05PM 32.2861 -80.8750 172° South 272 313 5,500 -1,680 Descending Jacksonville Center
12:06PM 32.2211 -80.8592 168° South 259 298 4,000 -1,380 Descending Jacksonville Center
12:07PM 32.1731 -80.8506 171° South 207 238 2,800 -840 Descending Jacksonville Center
12:08PM 32.1489 -80.9003 240° Southwest 160 184 2,400 -180 Descending Jacksonville Center
12:09PM 32.1289 -80.9594 248° West 174 200 2,500 60 Climbing Jacksonville Center
12:10PM 32.1256 -81.0158 266° West 179 206 2,600 -180 Climbing Jacksonville Center
12:11PM 32.1264 -81.0700 271° West 179 206 2,200 -600 Descending Jacksonville Center
12:12PM 32.1269 -81.1117 271° West 163 188 1,400 -840 Descending Jacksonville Center
12:13PM 32.1275 -81.1606 271° West 138 159 600 -600 Descending Jacksonville Center
12:14PM 32.1239 -81.2047 264° West 138 159 300 -300 Descending Jacksonville Center